Forside
METAR-TAF:

METAR-TAF

Lufthavne :

Boscombe Down, England

Breddekreds: 51-10N, længdekreds: 001-45W, højde: 124 m

Aktuelle vejr

Denne rapport blev lavet for 1 time og 11 minutter siden, kl. 01:50 UTC
Vind 4 kt fra nordvest
Temperatur 8°C
Fugtighed 87%
Tryk 1034 hPa
Sigt 10 km eller mere

METAR: EGDM 250150Z AUTO 31004KT 9999 NCD 08/06 Q1034

Tid: 04:01 (03:01 UTC)


TAF: fraværende

Vejrobservationer og prognoser fra mere end 4000 lufthavne (METAR og TAF).

De gule og røde prikker repræsenterer de meteorologiske stationer.

Flyt musen over at se navnet på stationen.

Så klik over at se vejr observationer og prognoser.

At skifte det kort: Klik på de grønne knapper med et sort kors for at zoome ind; på den grønne knap med en bindestreg for at zoome ud; eller på de grønne pile for tilstødende kort.


METAR-TAF: